sensor_id;sensor_type;location;lat;lon;timestamp;temperature;humidity
9486;DHT22;4781;48.776;9.200;2023-02-01T00:01:25;4.00;99.90
9486;DHT22;4781;48.776;9.200;2023-02-01T00:03:53;4.00;99.90
9486;DHT22;4781;48.776;9.200;2023-02-01T00:06:22;4.00;99.90
9486;DHT22;4781;48.776;9.200;2023-02-01T00:08:52;4.00;99.90
9486;DHT22;4781;48.776;9.200;2023-02-01T00:11:21;4.00;99.90
9486;DHT22;4781;48.776;9.200;2023-02-01T00:13:51;4.00;99.90
9486;DHT22;4781;48.776;9.200;2023-02-01T00:16:29;4.00;99.90
9486;DHT22;4781;48.776;9.200;2023-02-01T00:18:58;4.00;99.90
9486;DHT22;4781;48.776;9.200;2023-02-01T00:21:29;3.90;99.90
9486;DHT22;4781;48.776;9.200;2023-02-01T00:23:58;4.00;99.90
9486;DHT22;4781;48.776;9.200;2023-02-01T00:26:38;3.90;99.90
9486;DHT22;4781;48.776;9.200;2023-02-01T00:29:13;4.00;99.90
9486;DHT22;4781;48.776;9.200;2023-02-01T00:31:54;4.00;99.90
9486;DHT22;4781;48.776;9.200;2023-02-01T00:34:22;3.90;99.90
9486;DHT22;4781;48.776;9.200;2023-02-01T00:36:50;3.90;99.90
9486;DHT22;4781;48.776;9.200;2023-02-01T00:39:19;3.90;99.90
9486;DHT22;4781;48.776;9.200;2023-02-01T00:41:47;3.90;99.90
9486;DHT22;4781;48.776;9.200;2023-02-01T00:44:16;4.00;99.90
9486;DHT22;4781;48.776;9.200;2023-02-01T00:46:44;4.00;99.90
9486;DHT22;4781;48.776;9.200;2023-02-01T00:49:12;4.00;99.90
9486;DHT22;4781;48.776;9.200;2023-02-01T00:51:41;4.00;99.90
9486;DHT22;4781;48.776;9.200;2023-02-01T00:54:09;4.00;99.90
9486;DHT22;4781;48.776;9.200;2023-02-01T00:56:37;4.00;99.90
9486;DHT22;4781;48.776;9.200;2023-02-01T00:59:07;4.00;99.90
9486;DHT22;4781;48.776;9.200;2023-02-01T01:01:37;4.00;99.90
9486;DHT22;4781;48.776;9.200;2023-02-01T01:04:06;4.00;99.90
9486;DHT22;4781;48.776;9.200;2023-02-01T01:06:34;4.00;99.90
9486;DHT22;4781;48.776;9.200;2023-02-01T01:09:05;4.00;99.90
9486;DHT22;4781;48.776;9.200;2023-02-01T01:11:37;4.00;99.90
9486;DHT22;4781;48.776;9.200;2023-02-01T01:14:07;4.00;99.90
9486;DHT22;4781;48.776;9.200;2023-02-01T01:16:36;4.00;99.90
9486;DHT22;4781;48.776;9.200;2023-02-01T01:19:04;4.00;99.90
9486;DHT22;4781;48.776;9.200;2023-02-01T01:21:33;4.00;99.90
9486;DHT22;4781;48.776;9.200;2023-02-01T01:24:01;4.00;99.90
9486;DHT22;4781;48.776;9.200;2023-02-01T01:26:30;4.00;99.90
9486;DHT22;4781;48.776;9.200;2023-02-01T01:28:59;4.00;99.90
9486;DHT22;4781;48.776;9.200;2023-02-01T01:31:29;4.00;99.90
9486;DHT22;4781;48.776;9.200;2023-02-01T01:34:02;4.00;99.90
9486;DHT22;4781;48.776;9.200;2023-02-01T01:36:30;4.00;99.90
9486;DHT22;4781;48.776;9.200;2023-02-01T01:38:58;4.00;99.90
9486;DHT22;4781;48.776;9.200;2023-02-01T01:41:29;4.00;99.90
9486;DHT22;4781;48.776;9.200;2023-02-01T01:44:01;4.00;99.90
9486;DHT22;4781;48.776;9.200;2023-02-01T01:46:36;4.00;99.90
9486;DHT22;4781;48.776;9.200;2023-02-01T01:49:13;4.00;99.90
9486;DHT22;4781;48.776;9.200;2023-02-01T01:51:51;4.00;99.90
9486;DHT22;4781;48.776;9.200;2023-02-01T01:54:29;4.10;99.90
9486;DHT22;4781;48.776;9.200;2023-02-01T01:57:09;4.10;99.90
9486;DHT22;4781;48.776;9.200;2023-02-01T01:59:54;4.10;99.90
9486;DHT22;4781;48.776;9.200;2023-02-01T02:02:27;4.10;99.90
9486;DHT22;4781;48.776;9.200;2023-02-01T02:04:56;4.10;99.90
9486;DHT22;4781;48.776;9.200;2023-02-01T02:07:28;4.10;99.90
9486;DHT22;4781;48.776;9.200;2023-02-01T02:09:57;4.20;99.90
9486;DHT22;4781;48.776;9.200;2023-02-01T02:12:26;4.10;99.90
9486;DHT22;4781;48.776;9.200;2023-02-01T02:14:55;4.10;99.90
9486;DHT22;4781;48.776;9.200;2023-02-01T02:23:43;4.10;99.90
9486;DHT22;4781;48.776;9.200;2023-02-01T02:27:31;4.10;99.90
9486;DHT22;4781;48.776;9.200;2023-02-01T02:32:58;4.10;99.90
9486;DHT22;4781;48.776;9.200;2023-02-01T02:38:13;4.10;99.90
9486;DHT22;4781;48.776;9.200;2023-02-01T02:40:50;4.10;99.90
9486;DHT22;4781;48.776;9.200;2023-02-01T02:43:48;4.20;99.90
9486;DHT22;4781;48.776;9.200;2023-02-01T02:46:33;4.20;99.90
9486;DHT22;4781;48.776;9.200;2023-02-01T02:49:29;4.20;99.90
9486;DHT22;4781;48.776;9.200;2023-02-01T02:52:13;4.20;99.90
9486;DHT22;4781;48.776;9.200;2023-02-01T02:55:03;4.20;99.90
9486;DHT22;4781;48.776;9.200;2023-02-01T02:57:37;4.20;99.90
9486;DHT22;4781;48.776;9.200;2023-02-01T03:00:28;4.30;99.90
9486;DHT22;4781;48.776;9.200;2023-02-01T03:03:16;4.30;99.90
9486;DHT22;4781;48.776;9.200;2023-02-01T03:06:03;4.30;99.90
9486;DHT22;4781;48.776;9.200;2023-02-01T03:08:32;4.20;99.90
9486;DHT22;4781;48.776;9.200;2023-02-01T03:11:08;4.20;99.90
9486;DHT22;4781;48.776;9.200;2023-02-01T03:14:00;4.20;99.90
9486;DHT22;4781;48.776;9.200;2023-02-01T03:16:36;4.20;99.90
9486;DHT22;4781;48.776;9.200;2023-02-01T03:19:35;4.20;99.90
9486;DHT22;4781;48.776;9.200;2023-02-01T03:22:07;4.20;99.90
9486;DHT22;4781;48.776;9.200;2023-02-01T03:24:51;4.30;99.90
9486;DHT22;4781;48.776;9.200;2023-02-01T03:27:40;4.30;99.90
9486;DHT22;4781;48.776;9.200;2023-02-01T03:30:21;4.30;99.90
9486;DHT22;4781;48.776;9.200;2023-02-01T03:32:54;4.30;99.90
9486;DHT22;4781;48.776;9.200;2023-02-01T03:35:47;4.30;99.90
9486;DHT22;4781;48.776;9.200;2023-02-01T03:38:38;4.30;99.90
9486;DHT22;4781;48.776;9.200;2023-02-01T03:43:58;4.40;99.90
9486;DHT22;4781;48.776;9.200;2023-02-01T03:46:33;4.40;99.90
9486;DHT22;4781;48.776;9.200;2023-02-01T03:49:26;4.40;99.90
9486;DHT22;4781;48.776;9.200;2023-02-01T03:51:59;4.40;99.90
9486;DHT22;4781;48.776;9.200;2023-02-01T03:54:29;4.40;99.90
9486;DHT22;4781;48.776;9.200;2023-02-01T03:57:00;4.50;99.90
9486;DHT22;4781;48.776;9.200;2023-02-01T03:59:29;4.50;99.90
9486;DHT22;4781;48.776;9.200;2023-02-01T04:01:58;4.50;99.90
9486;DHT22;4781;48.776;9.200;2023-02-01T04:04:27;4.50;99.90
9486;DHT22;4781;48.776;9.200;2023-02-01T04:06:55;4.50;99.90
9486;DHT22;4781;48.776;9.200;2023-02-01T04:09:23;4.50;99.90
9486;DHT22;4781;48.776;9.200;2023-02-01T04:11:52;4.50;99.90
9486;DHT22;4781;48.776;9.200;2023-02-01T04:14:20;4.50;99.90
9486;DHT22;4781;48.776;9.200;2023-02-01T04:16:48;4.50;99.90
9486;DHT22;4781;48.776;9.200;2023-02-01T04:19:17;4.50;99.90
9486;DHT22;4781;48.776;9.200;2023-02-01T04:21:45;4.40;99.90
9486;DHT22;4781;48.776;9.200;2023-02-01T04:24:13;4.40;99.90
9486;DHT22;4781;48.776;9.200;2023-02-01T04:26:42;4.40;99.90
9486;DHT22;4781;48.776;9.200;2023-02-01T04:29:10;4.40;99.90
9486;DHT22;4781;48.776;9.200;2023-02-01T04:31:39;4.40;99.90
9486;DHT22;4781;48.776;9.200;2023-02-01T04:34:07;4.40;99.90
9486;DHT22;4781;48.776;9.200;2023-02-01T04:36:35;4.40;99.90
9486;DHT22;4781;48.776;9.200;2023-02-01T04:39:04;4.40;99.90
9486;DHT22;4781;48.776;9.200;2023-02-01T04:41:32;4.30;99.90
9486;DHT22;4781;48.776;9.200;2023-02-01T04:44:01;4.30;99.90
9486;DHT22;4781;48.776;9.200;2023-02-01T04:46:29;4.30;99.90
9486;DHT22;4781;48.776;9.200;2023-02-01T04:48:57;4.30;99.90
9486;DHT22;4781;48.776;9.200;2023-02-01T04:51:26;4.40;99.90
9486;DHT22;4781;48.776;9.200;2023-02-01T04:53:54;4.40;99.90
9486;DHT22;4781;48.776;9.200;2023-02-01T04:56:23;4.40;99.90
9486;DHT22;4781;48.776;9.200;2023-02-01T04:58:51;4.50;99.90
9486;DHT22;4781;48.776;9.200;2023-02-01T05:01:19;4.50;99.90
9486;DHT22;4781;48.776;9.200;2023-02-01T05:03:48;4.50;99.90
9486;DHT22;4781;48.776;9.200;2023-02-01T05:06:16;4.50;99.90
9486;DHT22;4781;48.776;9.200;2023-02-01T05:08:45;4.50;99.90
9486;DHT22;4781;48.776;9.200;2023-02-01T05:11:13;4.50;99.90
9486;DHT22;4781;48.776;9.200;2023-02-01T05:13:55;4.50;99.90
9486;DHT22;4781;48.776;9.200;2023-02-01T05:16:23;4.50;99.90
9486;DHT22;4781;48.776;9.200;2023-02-01T05:18:53;4.50;99.90
9486;DHT22;4781;48.776;9.200;2023-02-01T05:21:21;4.50;99.90
9486;DHT22;4781;48.776;9.200;2023-02-01T05:23:50;4.50;99.90
9486;DHT22;4781;48.776;9.200;2023-02-01T05:26:37;4.60;99.90
9486;DHT22;4781;48.776;9.200;2023-02-01T05:29:08;4.60;99.90
9486;DHT22;4781;48.776;9.200;2023-02-01T05:31:38;4.60;99.90
9486;DHT22;4781;48.776;9.200;2023-02-01T05:34:06;4.60;99.90
9486;DHT22;4781;48.776;9.200;2023-02-01T05:36:35;4.60;99.90
9486;DHT22;4781;48.776;9.200;2023-02-01T05:39:04;4.60;99.90
9486;DHT22;4781;48.776;9.200;2023-02-01T05:41:32;4.60;99.90
9486;DHT22;4781;48.776;9.200;2023-02-01T05:44:02;4.60;99.90
9486;DHT22;4781;48.776;9.200;2023-02-01T05:46:33;4.60;99.90
9486;DHT22;4781;48.776;9.200;2023-02-01T05:49:03;4.50;99.90
9486;DHT22;4781;48.776;9.200;2023-02-01T05:51:31;4.50;99.90
9486;DHT22;4781;48.776;9.200;2023-02-01T05:54:00;4.60;99.90
9486;DHT22;4781;48.776;9.200;2023-02-01T05:56:28;4.60;99.90
9486;DHT22;4781;48.776;9.200;2023-02-01T05:58:57;4.50;99.90
9486;DHT22;4781;48.776;9.200;2023-02-01T06:01:25;4.50;99.90
9486;DHT22;4781;48.776;9.200;2023-02-01T06:03:53;4.40;99.90
9486;DHT22;4781;48.776;9.200;2023-02-01T06:06:22;4.30;99.90
9486;DHT22;4781;48.776;9.200;2023-02-01T06:08:50;4.30;99.90
9486;DHT22;4781;48.776;9.200;2023-02-01T06:11:19;4.30;99.90
9486;DHT22;4781;48.776;9.200;2023-02-01T06:13:47;4.30;99.90
9486;DHT22;4781;48.776;9.200;2023-02-01T06:16:15;4.20;99.90
9486;DHT22;4781;48.776;9.200;2023-02-01T06:18:44;4.20;99.90
9486;DHT22;4781;48.776;9.200;2023-02-01T06:21:12;4.20;99.90
9486;DHT22;4781;48.776;9.200;2023-02-01T06:23:42;4.20;99.90
9486;DHT22;4781;48.776;9.200;2023-02-01T06:26:10;4.30;99.90
9486;DHT22;4781;48.776;9.200;2023-02-01T06:28:39;4.30;99.90
9486;DHT22;4781;48.776;9.200;2023-02-01T06:31:07;4.30;99.90
9486;DHT22;4781;48.776;9.200;2023-02-01T06:33:36;4.30;99.90
9486;DHT22;4781;48.776;9.200;2023-02-01T06:36:06;4.40;99.90
9486;DHT22;4781;48.776;9.200;2023-02-01T06:38:39;4.40;99.90
9486;DHT22;4781;48.776;9.200;2023-02-01T06:41:08;4.40;99.90
9486;DHT22;4781;48.776;9.200;2023-02-01T06:43:37;4.40;99.90
9486;DHT22;4781;48.776;9.200;2023-02-01T06:46:12;4.40;99.90
9486;DHT22;4781;48.776;9.200;2023-02-01T06:48:41;4.40;99.90
9486;DHT22;4781;48.776;9.200;2023-02-01T06:51:20;4.40;99.90
9486;DHT22;4781;48.776;9.200;2023-02-01T06:53:52;4.30;99.90
9486;DHT22;4781;48.776;9.200;2023-02-01T06:56:20;4.40;99.90
9486;DHT22;4781;48.776;9.200;2023-02-01T06:58:49;4.40;99.90
9486;DHT22;4781;48.776;9.200;2023-02-01T07:01:18;4.40;99.90
9486;DHT22;4781;48.776;9.200;2023-02-01T07:03:48;4.50;99.90
9486;DHT22;4781;48.776;9.200;2023-02-01T07:06:18;4.50;99.90
9486;DHT22;4781;48.776;9.200;2023-02-01T07:08:47;4.50;99.90
9486;DHT22;4781;48.776;9.200;2023-02-01T07:11:17;4.60;99.90
9486;DHT22;4781;48.776;9.200;2023-02-01T07:13:45;4.60;99.90
9486;DHT22;4781;48.776;9.200;2023-02-01T07:16:16;4.60;99.90
9486;DHT22;4781;48.776;9.200;2023-02-01T07:18:46;4.60;99.90
9486;DHT22;4781;48.776;9.200;2023-02-01T07:21:15;4.70;99.90
9486;DHT22;4781;48.776;9.200;2023-02-01T07:23:43;4.70;99.90
9486;DHT22;4781;48.776;9.200;2023-02-01T07:26:13;4.70;99.90
9486;DHT22;4781;48.776;9.200;2023-02-01T07:28:42;4.70;99.90
9486;DHT22;4781;48.776;9.200;2023-02-01T07:31:16;4.70;99.90
9486;DHT22;4781;48.776;9.200;2023-02-01T07:33:49;4.70;99.90
9486;DHT22;4781;48.776;9.200;2023-02-01T07:36:21;4.70;99.90
9486;DHT22;4781;48.776;9.200;2023-02-01T07:38:50;4.70;99.90
9486;DHT22;4781;48.776;9.200;2023-02-01T07:41:19;4.70;99.90
9486;DHT22;4781;48.776;9.200;2023-02-01T07:43:47;4.70;99.90
9486;DHT22;4781;48.776;9.200;2023-02-01T07:46:17;4.80;99.90
9486;DHT22;4781;48.776;9.200;2023-02-01T07:48:45;4.70;99.90
9486;DHT22;4781;48.776;9.200;2023-02-01T07:51:15;4.70;99.90
9486;DHT22;4781;48.776;9.200;2023-02-01T07:53:45;4.80;99.90
9486;DHT22;4781;48.776;9.200;2023-02-01T07:56:18;4.80;99.90
9486;DHT22;4781;48.776;9.200;2023-02-01T07:58:50;4.80;99.90
9486;DHT22;4781;48.776;9.200;2023-02-01T08:01:21;4.90;99.90
9486;DHT22;4781;48.776;9.200;2023-02-01T08:03:56;4.90;99.90
9486;DHT22;4781;48.776;9.200;2023-02-01T08:06:30;4.90;99.90
9486;DHT22;4781;48.776;9.200;2023-02-01T08:09:01;5.00;99.90
9486;DHT22;4781;48.776;9.200;2023-02-01T08:11:30;5.00;99.90
9486;DHT22;4781;48.776;9.200;2023-02-01T08:13:59;5.00;99.90
9486;DHT22;4781;48.776;9.200;2023-02-01T08:16:28;5.00;99.90
9486;DHT22;4781;48.776;9.200;2023-02-01T08:18:56;5.10;99.90
9486;DHT22;4781;48.776;9.200;2023-02-01T08:21:26;5.10;99.90
9486;DHT22;4781;48.776;9.200;2023-02-01T08:23:57;5.10;99.90
9486;DHT22;4781;48.776;9.200;2023-02-01T08:26:26;5.10;99.90
9486;DHT22;4781;48.776;9.200;2023-02-01T08:29:00;5.10;99.90
9486;DHT22;4781;48.776;9.200;2023-02-01T08:31:30;5.10;99.90
9486;DHT22;4781;48.776;9.200;2023-02-01T08:34:01;5.10;99.90
9486;DHT22;4781;48.776;9.200;2023-02-01T08:36:34;5.10;99.90
9486;DHT22;4781;48.776;9.200;2023-02-01T08:39:04;5.20;99.90
9486;DHT22;4781;48.776;9.200;2023-02-01T08:41:35;5.20;99.90
9486;DHT22;4781;48.776;9.200;2023-02-01T08:44:03;5.20;99.90
9486;DHT22;4781;48.776;9.200;2023-02-01T08:46:32;5.30;99.90
9486;DHT22;4781;48.776;9.200;2023-02-01T08:49:00;5.40;99.90
9486;DHT22;4781;48.776;9.200;2023-02-01T08:51:29;5.40;99.90
9486;DHT22;4781;48.776;9.200;2023-02-01T08:53:58;5.40;99.90
9486;DHT22;4781;48.776;9.200;2023-02-01T08:56:27;5.50;99.90
9486;DHT22;4781;48.776;9.200;2023-02-01T08:58:55;5.50;99.90
9486;DHT22;4781;48.776;9.200;2023-02-01T09:01:24;5.60;99.90
9486;DHT22;4781;48.776;9.200;2023-02-01T09:03:52;5.50;99.90
9486;DHT22;4781;48.776;9.200;2023-02-01T09:06:20;5.60;99.90
9486;DHT22;4781;48.776;9.200;2023-02-01T09:08:49;5.60;99.90
9486;DHT22;4781;48.776;9.200;2023-02-01T09:11:18;5.60;99.90
9486;DHT22;4781;48.776;9.200;2023-02-01T09:13:47;5.60;99.90
9486;DHT22;4781;48.776;9.200;2023-02-01T09:16:16;5.60;99.90
9486;DHT22;4781;48.776;9.200;2023-02-01T09:18:44;5.60;99.90
9486;DHT22;4781;48.776;9.200;2023-02-01T09:21:13;5.60;99.90
9486;DHT22;4781;48.776;9.200;2023-02-01T09:23:41;5.60;99.90
9486;DHT22;4781;48.776;9.200;2023-02-01T09:26:10;5.70;99.90
9486;DHT22;4781;48.776;9.200;2023-02-01T09:28:38;5.70;99.90
9486;DHT22;4781;48.776;9.200;2023-02-01T09:31:06;5.70;99.90
9486;DHT22;4781;48.776;9.200;2023-02-01T09:33:35;5.70;99.90
9486;DHT22;4781;48.776;9.200;2023-02-01T09:36:05;5.80;99.90
9486;DHT22;4781;48.776;9.200;2023-02-01T09:38:33;5.80;99.90
9486;DHT22;4781;48.776;9.200;2023-02-01T09:41:07;5.80;99.90
9486;DHT22;4781;48.776;9.200;2023-02-01T09:44:06;5.90;99.90
9486;DHT22;4781;48.776;9.200;2023-02-01T09:46:42;6.00;99.90
9486;DHT22;4781;48.776;9.200;2023-02-01T09:49:19;6.00;99.90
9486;DHT22;4781;48.776;9.200;2023-02-01T09:51:51;6.10;99.90
9486;DHT22;4781;48.776;9.200;2023-02-01T09:54:23;6.10;99.90
9486;DHT22;4781;48.776;9.200;2023-02-01T09:57:16;6.20;99.90
9486;DHT22;4781;48.776;9.200;2023-02-01T10:00:05;6.30;99.90
9486;DHT22;4781;48.776;9.200;2023-02-01T10:02:34;6.30;99.90
9486;DHT22;4781;48.776;9.200;2023-02-01T10:05:04;6.30;99.90
9486;DHT22;4781;48.776;9.200;2023-02-01T10:10:47;6.30;99.90
9486;DHT22;4781;48.776;9.200;2023-02-01T10:13:27;6.30;99.90
9486;DHT22;4781;48.776;9.200;2023-02-01T10:16:48;6.30;99.90
9486;DHT22;4781;48.776;9.200;2023-02-01T10:19:06;6.30;99.90
9486;DHT22;4781;48.776;9.200;2023-02-01T10:24:42;6.30;99.90
9486;DHT22;4781;48.776;9.200;2023-02-01T10:27:27;6.30;99.90
9486;DHT22;4781;48.776;9.200;2023-02-01T10:30:03;6.30;99.90
9486;DHT22;4781;48.776;9.200;2023-02-01T10:32:49;6.40;99.90
9486;DHT22;4781;48.776;9.200;2023-02-01T10:35:31;6.40;99.90
9486;DHT22;4781;48.776;9.200;2023-02-01T10:38:15;6.50;99.90
9486;DHT22;4781;48.776;9.200;2023-02-01T10:40:33;6.50;99.90
9486;DHT22;4781;48.776;9.200;2023-02-01T10:43:02;6.50;99.90
9486;DHT22;4781;48.776;9.200;2023-02-01T10:45:32;6.50;99.90
9486;DHT22;4781;48.776;9.200;2023-02-01T10:48:02;6.50;99.90
9486;DHT22;4781;48.776;9.200;2023-02-01T10:50:40;6.60;99.90
9486;DHT22;4781;48.776;9.200;2023-02-01T10:54:22;6.60;99.90
9486;DHT22;4781;48.776;9.200;2023-02-01T10:56:10;6.70;99.90
9486;DHT22;4781;48.776;9.200;2023-02-01T10:58:45;6.60;99.90
9486;DHT22;4781;48.776;9.200;2023-02-01T11:01:57;6.70;99.90
9486;DHT22;4781;48.776;9.200;2023-02-01T11:03:58;6.70;99.90
9486;DHT22;4781;48.776;9.200;2023-02-01T11:06:36;6.70;99.90
9486;DHT22;4781;48.776;9.200;2023-02-01T11:09:16;6.70;99.90
9486;DHT22;4781;48.776;9.200;2023-02-01T11:11:53;6.60;99.90
9486;DHT22;4781;48.776;9.200;2023-02-01T11:14:38;6.60;99.90
9486;DHT22;4781;48.776;9.200;2023-02-01T11:19:47;6.70;99.90
9486;DHT22;4781;48.776;9.200;2023-02-01T11:22:25;6.70;99.90
9486;DHT22;4781;48.776;9.200;2023-02-01T11:24:56;6.70;99.90
9486;DHT22;4781;48.776;9.200;2023-02-01T11:27:25;6.60;99.90
9486;DHT22;4781;48.776;9.200;2023-02-01T11:29:56;6.60;99.90
9486;DHT22;4781;48.776;9.200;2023-02-01T11:32:27;6.60;99.90
9486;DHT22;4781;48.776;9.200;2023-02-01T11:34:59;6.60;99.90
9486;DHT22;4781;48.776;9.200;2023-02-01T11:37:38;6.50;99.90
9486;DHT22;4781;48.776;9.200;2023-02-01T11:43:00;6.60;99.90
9486;DHT22;4781;48.776;9.200;2023-02-01T11:45:57;6.60;99.90
9486;DHT22;4781;48.776;9.200;2023-02-01T11:48:31;6.60;99.90
9486;DHT22;4781;48.776;9.200;2023-02-01T11:54:13;6.60;99.90
9486;DHT22;4781;48.776;9.200;2023-02-01T11:56:55;6.60;99.90
9486;DHT22;4781;48.776;9.200;2023-02-01T11:59:36;6.60;99.90
9486;DHT22;4781;48.776;9.200;2023-02-01T12:05:45;6.70;99.90
9486;DHT22;4781;48.776;9.200;2023-02-01T12:08:34;6.80;99.90
9486;DHT22;4781;48.776;9.200;2023-02-01T12:14:32;6.70;99.90
9486;DHT22;4781;48.776;9.200;2023-02-01T12:29:37;6.60;99.90
9486;DHT22;4781;48.776;9.200;2023-02-01T12:32:51;6.60;99.90
9486;DHT22;4781;48.776;9.200;2023-02-01T12:47:21;6.50;99.90
9486;DHT22;4781;48.776;9.200;2023-02-01T12:52:58;6.40;99.90
9486;DHT22;4781;48.776;9.200;2023-02-01T12:55:43;6.40;99.90
9486;DHT22;4781;48.776;9.200;2023-02-01T12:58:24;6.40;99.90
9486;DHT22;4781;48.776;9.200;2023-02-01T13:01:06;6.40;99.90
9486;DHT22;4781;48.776;9.200;2023-02-01T13:07:25;6.30;99.90
9486;DHT22;4781;48.776;9.200;2023-02-01T13:15:29;6.20;99.90
9486;DHT22;4781;48.776;9.200;2023-02-01T13:18:02;6.20;99.90
9486;DHT22;4781;48.776;9.200;2023-02-01T13:20:35;6.20;99.90
9486;DHT22;4781;48.776;9.200;2023-02-01T13:25:47;6.30;99.90
9486;DHT22;4781;48.776;9.200;2023-02-01T13:28:34;6.30;99.90
9486;DHT22;4781;48.776;9.200;2023-02-01T13:31:25;6.30;99.90
9486;DHT22;4781;48.776;9.200;2023-02-01T13:36:42;6.40;99.90
9486;DHT22;4781;48.776;9.200;2023-02-01T13:42:29;6.30;99.90
9486;DHT22;4781;48.776;9.200;2023-02-01T13:45:27;6.30;99.90
9486;DHT22;4781;48.776;9.200;2023-02-01T13:47:54;6.30;99.90
9486;DHT22;4781;48.776;9.200;2023-02-01T13:50:30;6.30;99.90
9486;DHT22;4781;48.776;9.200;2023-02-01T13:53:17;6.30;99.90
9486;DHT22;4781;48.776;9.200;2023-02-01T13:55:55;6.30;99.90
9486;DHT22;4781;48.776;9.200;2023-02-01T14:03:54;6.30;99.90
9486;DHT22;4781;48.776;9.200;2023-02-01T14:09:19;6.20;99.90
9486;DHT22;4781;48.776;9.200;2023-02-01T14:11:53;6.20;99.90
9486;DHT22;4781;48.776;9.200;2023-02-01T14:17:29;6.20;99.90
9486;DHT22;4781;48.776;9.200;2023-02-01T14:19:31;6.20;99.90
9486;DHT22;4781;48.776;9.200;2023-02-01T14:24:54;6.30;99.90
9486;DHT22;4781;48.776;9.200;2023-02-01T14:27:30;6.30;99.90
9486;DHT22;4781;48.776;9.200;2023-02-01T14:30:05;6.30;99.90
9486;DHT22;4781;48.776;9.200;2023-02-01T14:32:37;6.30;99.90
9486;DHT22;4781;48.776;9.200;2023-02-01T14:35:19;6.20;99.90
9486;DHT22;4781;48.776;9.200;2023-02-01T14:37:47;6.20;99.90
9486;DHT22;4781;48.776;9.200;2023-02-01T14:40:26;6.20;99.90
9486;DHT22;4781;48.776;9.200;2023-02-01T14:42:55;6.30;99.90
9486;DHT22;4781;48.776;9.200;2023-02-01T14:50:44;6.30;99.90
9486;DHT22;4781;48.776;9.200;2023-02-01T14:53:21;6.20;99.90
9486;DHT22;4781;48.776;9.200;2023-02-01T15:01:36;6.20;99.90
9486;DHT22;4781;48.776;9.200;2023-02-01T15:04:13;6.30;99.90
9486;DHT22;4781;48.776;9.200;2023-02-01T15:06:56;6.30;99.90
9486;DHT22;4781;48.776;9.200;2023-02-01T15:09:34;6.20;99.90
9486;DHT22;4781;48.776;9.200;2023-02-01T15:15:03;6.20;99.90
9486;DHT22;4781;48.776;9.200;2023-02-01T15:17:27;6.20;99.90
9486;DHT22;4781;48.776;9.200;2023-02-01T15:20:18;6.20;99.90
9486;DHT22;4781;48.776;9.200;2023-02-01T15:23:00;6.20;99.90
9486;DHT22;4781;48.776;9.200;2023-02-01T15:25:36;6.20;99.90
9486;DHT22;4781;48.776;9.200;2023-02-01T15:28:09;6.20;99.90
9486;DHT22;4781;48.776;9.200;2023-02-01T15:30:40;6.20;99.90
9486;DHT22;4781;48.776;9.200;2023-02-01T15:33:15;6.10;99.90
9486;DHT22;4781;48.776;9.200;2023-02-01T15:35:47;6.10;99.90
9486;DHT22;4781;48.776;9.200;2023-02-01T15:38:32;6.10;99.90
9486;DHT22;4781;48.776;9.200;2023-02-01T15:41:21;6.10;99.90
9486;DHT22;4781;48.776;9.200;2023-02-01T15:46:38;6.10;99.90
9486;DHT22;4781;48.776;9.200;2023-02-01T15:49:20;6.10;99.90
9486;DHT22;4781;48.776;9.200;2023-02-01T15:51:55;6.10;99.90
9486;DHT22;4781;48.776;9.200;2023-02-01T15:54:27;6.10;99.90
9486;DHT22;4781;48.776;9.200;2023-02-01T15:57:00;6.20;99.90
9486;DHT22;4781;48.776;9.200;2023-02-01T15:59:42;6.10;99.90
9486;DHT22;4781;48.776;9.200;2023-02-01T16:02:29;6.20;99.90
9486;DHT22;4781;48.776;9.200;2023-02-01T16:05:35;6.10;99.90
9486;DHT22;4781;48.776;9.200;2023-02-01T16:08:23;6.20;99.90
9486;DHT22;4781;48.776;9.200;2023-02-01T16:11:14;6.10;99.90
9486;DHT22;4781;48.776;9.200;2023-02-01T16:13:38;6.10;99.90
9486;DHT22;4781;48.776;9.200;2023-02-01T16:16:08;6.20;99.90
9486;DHT22;4781;48.776;9.200;2023-02-01T16:18:39;6.20;99.90
9486;DHT22;4781;48.776;9.200;2023-02-01T16:21:08;6.20;99.90
9486;DHT22;4781;48.776;9.200;2023-02-01T16:23:37;6.20;99.90
9486;DHT22;4781;48.776;9.200;2023-02-01T16:26:06;6.20;99.90
9486;DHT22;4781;48.776;9.200;2023-02-01T16:28:34;6.20;99.90
9486;DHT22;4781;48.776;9.200;2023-02-01T16:31:03;6.20;99.90
9486;DHT22;4781;48.776;9.200;2023-02-01T16:33:31;6.20;99.90
9486;DHT22;4781;48.776;9.200;2023-02-01T16:35:59;6.20;99.90
9486;DHT22;4781;48.776;9.200;2023-02-01T16:38:30;6.20;99.90
9486;DHT22;4781;48.776;9.200;2023-02-01T16:40:59;6.20;99.90
9486;DHT22;4781;48.776;9.200;2023-02-01T16:43:29;6.20;99.90
9486;DHT22;4781;48.776;9.200;2023-02-01T16:46:00;6.20;99.90
9486;DHT22;4781;48.776;9.200;2023-02-01T16:48:33;6.20;99.90
9486;DHT22;4781;48.776;9.200;2023-02-01T16:51:11;6.20;99.90
9486;DHT22;4781;48.776;9.200;2023-02-01T16:53:40;6.20;99.90
9486;DHT22;4781;48.776;9.200;2023-02-01T16:56:14;6.20;99.90
9486;DHT22;4781;48.776;9.200;2023-02-01T16:58:47;6.20;99.90
9486;DHT22;4781;48.776;9.200;2023-02-01T17:01:18;6.20;99.90
9486;DHT22;4781;48.776;9.200;2023-02-01T17:03:46;6.10;99.90
9486;DHT22;4781;48.776;9.200;2023-02-01T17:06:18;6.10;99.90
9486;DHT22;4781;48.776;9.200;2023-02-01T17:08:54;6.10;99.90
9486;DHT22;4781;48.776;9.200;2023-02-01T17:11:27;6.10;99.90
9486;DHT22;4781;48.776;9.200;2023-02-01T17:14:01;6.10;99.90
9486;DHT22;4781;48.776;9.200;2023-02-01T17:16:31;6.00;99.90
9486;DHT22;4781;48.776;9.200;2023-02-01T17:19:03;6.00;99.90
9486;DHT22;4781;48.776;9.200;2023-02-01T17:21:44;6.00;99.90
9486;DHT22;4781;48.776;9.200;2023-02-01T17:24:18;6.00;99.90
9486;DHT22;4781;48.776;9.200;2023-02-01T17:26:47;6.00;99.90
9486;DHT22;4781;48.776;9.200;2023-02-01T17:29:18;6.00;99.90
9486;DHT22;4781;48.776;9.200;2023-02-01T17:31:49;6.00;99.90
9486;DHT22;4781;48.776;9.200;2023-02-01T17:34:19;6.00;99.90
9486;DHT22;4781;48.776;9.200;2023-02-01T17:36:48;6.00;99.90
9486;DHT22;4781;48.776;9.200;2023-02-01T17:39:17;6.00;99.90
9486;DHT22;4781;48.776;9.200;2023-02-01T17:42:05;6.00;99.90
9486;DHT22;4781;48.776;9.200;2023-02-01T17:44:35;6.00;99.90
9486;DHT22;4781;48.776;9.200;2023-02-01T17:47:03;6.00;99.90
9486;DHT22;4781;48.776;9.200;2023-02-01T17:49:32;6.00;99.90
9486;DHT22;4781;48.776;9.200;2023-02-01T17:52:01;6.00;99.90
9486;DHT22;4781;48.776;9.200;2023-02-01T17:54:30;5.90;99.90
9486;DHT22;4781;48.776;9.200;2023-02-01T17:56:59;5.90;99.90
9486;DHT22;4781;48.776;9.200;2023-02-01T17:59:29;5.90;99.90
9486;DHT22;4781;48.776;9.200;2023-02-01T18:01:57;5.90;99.90
9486;DHT22;4781;48.776;9.200;2023-02-01T18:04:27;5.90;99.90
9486;DHT22;4781;48.776;9.200;2023-02-01T18:06:55;5.90;99.90
9486;DHT22;4781;48.776;9.200;2023-02-01T18:09:24;5.90;99.90
9486;DHT22;4781;48.776;9.200;2023-02-01T18:11:52;5.90;99.90
9486;DHT22;4781;48.776;9.200;2023-02-01T18:14:22;5.90;99.90
9486;DHT22;4781;48.776;9.200;2023-02-01T18:16:51;5.90;99.90
9486;DHT22;4781;48.776;9.200;2023-02-01T18:19:19;5.90;99.90
9486;DHT22;4781;48.776;9.200;2023-02-01T18:21:48;5.90;99.90
9486;DHT22;4781;48.776;9.200;2023-02-01T18:24:18;5.90;99.90
9486;DHT22;4781;48.776;9.200;2023-02-01T18:26:48;5.90;99.90
9486;DHT22;4781;48.776;9.200;2023-02-01T18:29:17;5.90;99.90
9486;DHT22;4781;48.776;9.200;2023-02-01T18:31:47;5.90;99.90
9486;DHT22;4781;48.776;9.200;2023-02-01T18:34:16;5.90;99.90
9486;DHT22;4781;48.776;9.200;2023-02-01T18:36:48;5.90;99.90
9486;DHT22;4781;48.776;9.200;2023-02-01T18:39:17;5.90;99.90
9486;DHT22;4781;48.776;9.200;2023-02-01T18:41:49;6.00;99.90
9486;DHT22;4781;48.776;9.200;2023-02-01T18:44:17;6.00;99.90
9486;DHT22;4781;48.776;9.200;2023-02-01T18:46:45;6.00;99.90
9486;DHT22;4781;48.776;9.200;2023-02-01T18:49:14;6.00;99.90